sensor_id;sensor_type;location;lat;lon;timestamp;temperature;humidity
69546;SHT31;56766;52.260;20.746;2022-10-16T00:01:37;14.64;78.20
69546;SHT31;56766;52.260;20.746;2022-10-16T00:04:04;14.64;78.20
69546;SHT31;56766;52.260;20.746;2022-10-16T00:06:31;14.64;78.19
69546;SHT31;56766;52.260;20.746;2022-10-16T00:08:58;14.65;78.20
69546;SHT31;56766;52.260;20.746;2022-10-16T00:11:32;14.66;78.17
69546;SHT31;56766;52.260;20.746;2022-10-16T00:14:08;14.67;78.10
69546;SHT31;56766;52.260;20.746;2022-10-16T00:16:38;14.66;78.07
69546;SHT31;56766;52.260;20.746;2022-10-16T00:19:05;14.66;77.99
69546;SHT31;56766;52.260;20.746;2022-10-16T00:21:31;14.67;78.00
69546;SHT31;56766;52.260;20.746;2022-10-16T00:24:02;14.68;78.00
69546;SHT31;56766;52.260;20.746;2022-10-16T00:26:33;14.69;78.00
69546;SHT31;56766;52.260;20.746;2022-10-16T00:29:02;14.72;77.89
69546;SHT31;56766;52.260;20.746;2022-10-16T00:31:30;14.72;77.84
69546;SHT31;56766;52.260;20.746;2022-10-16T00:33:57;14.73;77.81
69546;SHT31;56766;52.260;20.746;2022-10-16T00:36:25;14.74;77.80
69546;SHT31;56766;52.260;20.746;2022-10-16T00:38:54;14.74;77.80
69546;SHT31;56766;52.260;20.746;2022-10-16T00:41:25;14.72;77.76
69546;SHT31;56766;52.260;20.746;2022-10-16T00:43:57;14.71;77.75
69546;SHT31;56766;52.260;20.746;2022-10-16T00:46:40;14.66;77.76
69546;SHT31;56766;52.260;20.746;2022-10-16T00:49:14;14.62;77.72
69546;SHT31;56766;52.260;20.746;2022-10-16T00:51:49;14.56;77.83
69546;SHT31;56766;52.260;20.746;2022-10-16T00:54:28;14.51;78.02
69546;SHT31;56766;52.260;20.746;2022-10-16T00:57:02;14.51;78.24
69546;SHT31;56766;52.260;20.746;2022-10-16T00:59:40;14.50;78.38
69546;SHT31;56766;52.260;20.746;2022-10-16T01:02:14;14.51;78.41
69546;SHT31;56766;52.260;20.746;2022-10-16T01:04:45;14.51;78.49
69546;SHT31;56766;52.260;20.746;2022-10-16T01:10:39;14.50;78.60
69546;SHT31;56766;52.260;20.746;2022-10-16T01:13:21;14.50;78.57
69546;SHT31;56766;52.260;20.746;2022-10-16T01:16:07;14.51;78.60
69546;SHT31;56766;52.260;20.746;2022-10-16T01:19:01;14.48;78.69
69546;SHT31;56766;52.260;20.746;2022-10-16T01:21:49;14.48;78.78
69546;SHT31;56766;52.260;20.746;2022-10-16T01:24:48;14.50;78.78
69546;SHT31;56766;52.260;20.746;2022-10-16T01:27:31;14.56;78.73
69546;SHT31;56766;52.260;20.746;2022-10-16T01:30:14;14.59;78.61
69546;SHT31;56766;52.260;20.746;2022-10-16T01:33:14;14.56;78.60
69546;SHT31;56766;52.260;20.746;2022-10-16T01:35:52;14.56;78.65
69546;SHT31;56766;52.260;20.746;2022-10-16T01:38:33;14.56;78.66
69546;SHT31;56766;52.260;20.746;2022-10-16T01:41:19;14.57;78.62
69546;SHT31;56766;52.260;20.746;2022-10-16T01:44:08;14.58;78.50
69546;SHT31;56766;52.260;20.746;2022-10-16T01:46:39;14.58;78.49
69546;SHT31;56766;52.260;20.746;2022-10-16T01:49:10;14.58;78.50
69546;SHT31;56766;52.260;20.746;2022-10-16T01:51:39;14.57;78.49
69546;SHT31;56766;52.260;20.746;2022-10-16T01:54:08;14.56;78.48
69546;SHT31;56766;52.260;20.746;2022-10-16T01:56:39;14.55;78.38
69546;SHT31;56766;52.260;20.746;2022-10-16T01:59:11;14.52;78.28
69546;SHT31;56766;52.260;20.746;2022-10-16T02:01:46;14.50;78.23
69546;SHT31;56766;52.260;20.746;2022-10-16T02:04:21;14.46;78.22
69546;SHT31;56766;52.260;20.746;2022-10-16T02:06:49;14.45;78.30
69546;SHT31;56766;52.260;20.746;2022-10-16T02:09:16;14.44;78.30
69546;SHT31;56766;52.260;20.746;2022-10-16T02:11:44;14.42;78.32
69546;SHT31;56766;52.260;20.746;2022-10-16T02:14:11;14.42;78.34
69546;SHT31;56766;52.260;20.746;2022-10-16T02:16:41;14.41;78.39
69546;SHT31;56766;52.260;20.746;2022-10-16T02:19:12;14.41;78.40
69546;SHT31;56766;52.260;20.746;2022-10-16T02:22:03;14.40;78.38
69546;SHT31;56766;52.260;20.746;2022-10-16T02:24:38;14.38;78.40
69546;SHT31;56766;52.260;20.746;2022-10-16T02:27:33;14.37;78.40
69546;SHT31;56766;52.260;20.746;2022-10-16T02:30:20;14.35;78.39
69546;SHT31;56766;52.260;20.746;2022-10-16T02:32:59;14.33;78.33
69546;SHT31;56766;52.260;20.746;2022-10-16T02:35:31;14.31;78.38
69546;SHT31;56766;52.260;20.746;2022-10-16T02:37:59;14.31;78.38
69546;SHT31;56766;52.260;20.746;2022-10-16T02:40:27;14.35;78.35
69546;SHT31;56766;52.260;20.746;2022-10-16T02:42:55;14.38;78.30
69546;SHT31;56766;52.260;20.746;2022-10-16T02:45:23;14.36;78.34
69546;SHT31;56766;52.260;20.746;2022-10-16T02:47:50;14.37;78.39
69546;SHT31;56766;52.260;20.746;2022-10-16T02:50:17;14.39;78.40
69546;SHT31;56766;52.260;20.746;2022-10-16T02:52:44;14.39;78.34
69546;SHT31;56766;52.260;20.746;2022-10-16T02:55:10;14.42;78.32
69546;SHT31;56766;52.260;20.746;2022-10-16T02:57:37;14.44;78.29
69546;SHT31;56766;52.260;20.746;2022-10-16T03:00:08;14.43;78.26
69546;SHT31;56766;52.260;20.746;2022-10-16T03:02:37;14.41;78.20
69546;SHT31;56766;52.260;20.746;2022-10-16T03:05:04;14.41;78.22
69546;SHT31;56766;52.260;20.746;2022-10-16T03:07:31;14.43;78.22
69546;SHT31;56766;52.260;20.746;2022-10-16T03:09:59;14.43;78.28
69546;SHT31;56766;52.260;20.746;2022-10-16T03:12:29;14.43;78.20
69546;SHT31;56766;52.260;20.746;2022-10-16T03:14:56;14.40;78.18
69546;SHT31;56766;52.260;20.746;2022-10-16T03:17:24;14.38;78.16
69546;SHT31;56766;52.260;20.746;2022-10-16T03:19:51;14.35;78.20
69546;SHT31;56766;52.260;20.746;2022-10-16T03:22:18;14.34;78.20
69546;SHT31;56766;52.260;20.746;2022-10-16T03:24:45;14.32;78.20
69546;SHT31;56766;52.260;20.746;2022-10-16T03:27:11;14.30;78.20
69546;SHT31;56766;52.260;20.746;2022-10-16T03:29:38;14.29;78.20
69546;SHT31;56766;52.260;20.746;2022-10-16T03:32:04;14.26;78.13
69546;SHT31;56766;52.260;20.746;2022-10-16T03:34:31;14.23;78.10
69546;SHT31;56766;52.260;20.746;2022-10-16T03:36:57;14.19;78.14
69546;SHT31;56766;52.260;20.746;2022-10-16T03:39:24;14.18;78.20
69546;SHT31;56766;52.260;20.746;2022-10-16T03:41:51;14.16;78.20
69546;SHT31;56766;52.260;20.746;2022-10-16T03:44:17;14.12;78.30
69546;SHT31;56766;52.260;20.746;2022-10-16T03:46:44;14.10;78.34
69546;SHT31;56766;52.260;20.746;2022-10-16T03:49:10;14.07;78.36
69546;SHT31;56766;52.260;20.746;2022-10-16T03:51:37;14.04;78.32
69546;SHT31;56766;52.260;20.746;2022-10-16T03:54:04;13.98;78.30
69546;SHT31;56766;52.260;20.746;2022-10-16T03:56:30;13.92;78.42
69546;SHT31;56766;52.260;20.746;2022-10-16T03:58:57;13.87;78.56
69546;SHT31;56766;52.260;20.746;2022-10-16T04:01:23;13.86;78.63
69546;SHT31;56766;52.260;20.746;2022-10-16T04:03:50;13.83;78.61
69546;SHT31;56766;52.260;20.746;2022-10-16T04:06:17;13.76;78.57
69546;SHT31;56766;52.260;20.746;2022-10-16T04:08:43;13.65;78.50
69546;SHT31;56766;52.260;20.746;2022-10-16T04:11:11;13.53;78.50
69546;SHT31;56766;52.260;20.746;2022-10-16T04:13:38;13.43;78.50
69546;SHT31;56766;52.260;20.746;2022-10-16T04:16:04;13.32;78.51
69546;SHT31;56766;52.260;20.746;2022-10-16T04:18:31;13.18;78.56
69546;SHT31;56766;52.260;20.746;2022-10-16T04:21:03;13.09;78.57
69546;SHT31;56766;52.260;20.746;2022-10-16T04:23:31;13.01;78.42
69546;SHT31;56766;52.260;20.746;2022-10-16T04:25:59;12.90;78.41
69546;SHT31;56766;52.260;20.746;2022-10-16T04:28:26;12.74;78.54
69546;SHT31;56766;52.260;20.746;2022-10-16T04:30:53;12.60;78.67
69546;SHT31;56766;52.260;20.746;2022-10-16T04:33:20;12.48;78.93
69546;SHT31;56766;52.260;20.746;2022-10-16T04:35:47;12.37;79.15
69546;SHT31;56766;52.260;20.746;2022-10-16T04:38:14;12.27;79.22
69546;SHT31;56766;52.260;20.746;2022-10-16T04:40:42;12.17;79.20
69546;SHT31;56766;52.260;20.746;2022-10-16T04:43:09;12.09;79.31
69546;SHT31;56766;52.260;20.746;2022-10-16T04:45:36;12.00;79.49
69546;SHT31;56766;52.260;20.746;2022-10-16T04:48:03;11.93;79.66
69546;SHT31;56766;52.260;20.746;2022-10-16T04:50:29;11.88;79.85
69546;SHT31;56766;52.260;20.746;2022-10-16T04:52:56;11.84;79.98
69546;SHT31;56766;52.260;20.746;2022-10-16T04:55:23;11.80;80.20
69546;SHT31;56766;52.260;20.746;2022-10-16T04:57:49;11.76;80.37
69546;SHT31;56766;52.260;20.746;2022-10-16T05:00:16;11.72;80.56
69546;SHT31;56766;52.260;20.746;2022-10-16T05:02:43;11.69;80.60
69546;SHT31;56766;52.260;20.746;2022-10-16T05:05:10;11.70;80.50
69546;SHT31;56766;52.260;20.746;2022-10-16T05:07:36;11.68;80.55
69546;SHT31;56766;52.260;20.746;2022-10-16T05:10:03;11.64;80.80
69546;SHT31;56766;52.260;20.746;2022-10-16T05:12:30;11.59;81.00
69546;SHT31;56766;52.260;20.746;2022-10-16T05:14:57;11.57;81.31
69546;SHT31;56766;52.260;20.746;2022-10-16T05:17:25;11.56;81.54
69546;SHT31;56766;52.260;20.746;2022-10-16T05:19:52;11.57;81.98
69546;SHT31;56766;52.260;20.746;2022-10-16T05:22:19;11.60;82.31
69546;SHT31;56766;52.260;20.746;2022-10-16T05:24:45;11.64;82.40
69546;SHT31;56766;52.260;20.746;2022-10-16T05:27:12;11.68;82.50
69546;SHT31;56766;52.260;20.746;2022-10-16T05:29:46;11.70;82.69
69546;SHT31;56766;52.260;20.746;2022-10-16T05:32:16;11.74;82.70
69546;SHT31;56766;52.260;20.746;2022-10-16T05:34:44;11.77;82.78
69546;SHT31;56766;52.260;20.746;2022-10-16T05:37:12;11.80;82.84
69546;SHT31;56766;52.260;20.746;2022-10-16T05:39:39;11.85;82.90
69546;SHT31;56766;52.260;20.746;2022-10-16T05:42:06;11.91;82.91
69546;SHT31;56766;52.260;20.746;2022-10-16T05:44:33;11.97;82.97
69546;SHT31;56766;52.260;20.746;2022-10-16T05:46:59;12.01;82.95
69546;SHT31;56766;52.260;20.746;2022-10-16T05:49:26;12.04;82.92
69546;SHT31;56766;52.260;20.746;2022-10-16T05:51:52;12.08;82.99
69546;SHT31;56766;52.260;20.746;2022-10-16T05:54:19;12.12;83.06
69546;SHT31;56766;52.260;20.746;2022-10-16T05:56:45;12.16;83.18
69546;SHT31;56766;52.260;20.746;2022-10-16T05:59:12;12.20;83.23
69546;SHT31;56766;52.260;20.746;2022-10-16T06:01:39;12.26;83.30
69546;SHT31;56766;52.260;20.746;2022-10-16T06:04:05;12.32;83.29
69546;SHT31;56766;52.260;20.746;2022-10-16T06:06:32;12.38;83.22
69546;SHT31;56766;52.260;20.746;2022-10-16T06:08:58;12.46;83.38
69546;SHT31;56766;52.260;20.746;2022-10-16T06:11:29;12.56;83.40
69546;SHT31;56766;52.260;20.746;2022-10-16T06:14:00;12.66;83.40
69546;SHT31;56766;52.260;20.746;2022-10-16T06:16:29;12.79;83.35
69546;SHT31;56766;52.260;20.746;2022-10-16T06:18:56;12.91;83.21
69546;SHT31;56766;52.260;20.746;2022-10-16T06:21:24;13.04;83.24
69546;SHT31;56766;52.260;20.746;2022-10-16T06:23:52;13.20;83.22
69546;SHT31;56766;52.260;20.746;2022-10-16T06:26:23;13.38;83.11
69546;SHT31;56766;52.260;20.746;2022-10-16T06:28:51;13.60;82.93
69546;SHT31;56766;52.260;20.746;2022-10-16T06:31:21;13.82;82.60
69546;SHT31;56766;52.260;20.746;2022-10-16T06:33:51;14.03;82.25
69546;SHT31;56766;52.260;20.746;2022-10-16T06:36:18;14.23;81.91
69546;SHT31;56766;52.260;20.746;2022-10-16T06:38:45;14.48;81.76
69546;SHT31;56766;52.260;20.746;2022-10-16T06:41:15;14.78;81.35
69546;SHT31;56766;52.260;20.746;2022-10-16T06:43:44;15.10;80.97
69546;SHT31;56766;52.260;20.746;2022-10-16T06:46:16;15.38;80.36
69546;SHT31;56766;52.260;20.746;2022-10-16T06:48:46;15.59;79.91
69546;SHT31;56766;52.260;20.746;2022-10-16T06:51:18;15.76;79.54
69546;SHT31;56766;52.260;20.746;2022-10-16T06:53:49;15.88;78.95
69546;SHT31;56766;52.260;20.746;2022-10-16T06:56:23;15.93;78.69
69546;SHT31;56766;52.260;20.746;2022-10-16T06:58:51;15.94;78.38
69546;SHT31;56766;52.260;20.746;2022-10-16T07:01:21;15.88;78.17
69546;SHT31;56766;52.260;20.746;2022-10-16T07:03:50;15.81;78.10
69546;SHT31;56766;52.260;20.746;2022-10-16T07:06:20;15.78;78.11
69546;SHT31;56766;52.260;20.746;2022-10-16T07:08:49;15.73;77.88
69546;SHT31;56766;52.260;20.746;2022-10-16T07:11:19;15.70;77.70
69546;SHT31;56766;52.260;20.746;2022-10-16T07:13:48;15.69;77.67
69546;SHT31;56766;52.260;20.746;2022-10-16T07:16:18;15.72;77.75
69546;SHT31;56766;52.260;20.746;2022-10-16T07:18:47;15.77;77.69
69546;SHT31;56766;52.260;20.746;2022-10-16T07:21:20;15.81;77.46
69546;SHT31;56766;52.260;20.746;2022-10-16T07:23:57;15.82;77.28
69546;SHT31;56766;52.260;20.746;2022-10-16T07:26:27;15.79;77.01
69546;SHT31;56766;52.260;20.746;2022-10-16T07:28:55;15.92;77.02
69546;SHT31;56766;52.260;20.746;2022-10-16T07:31:23;16.27;76.98
69546;SHT31;56766;52.260;20.746;2022-10-16T07:33:51;16.60;76.63
69546;SHT31;56766;52.260;20.746;2022-10-16T07:36:20;16.85;75.84
69546;SHT31;56766;52.260;20.746;2022-10-16T07:38:48;17.10;75.42
69546;SHT31;56766;52.260;20.746;2022-10-16T07:41:18;17.37;74.57
69546;SHT31;56766;52.260;20.746;2022-10-16T07:43:51;17.53;73.55
69546;SHT31;56766;52.260;20.746;2022-10-16T07:46:20;17.63;73.77
69546;SHT31;56766;52.260;20.746;2022-10-16T07:48:49;17.77;73.42
69546;SHT31;56766;52.260;20.746;2022-10-16T07:51:19;17.90;73.19
69546;SHT31;56766;52.260;20.746;2022-10-16T07:53:47;18.00;73.14
69546;SHT31;56766;52.260;20.746;2022-10-16T07:56:16;18.09;72.99
69546;SHT31;56766;52.260;20.746;2022-10-16T07:58:44;18.14;72.81
69546;SHT31;56766;52.260;20.746;2022-10-16T08:01:14;18.18;72.46
69546;SHT31;56766;52.260;20.746;2022-10-16T08:03:47;18.24;72.66
69546;SHT31;56766;52.260;20.746;2022-10-16T08:06:15;18.36;72.43
69546;SHT31;56766;52.260;20.746;2022-10-16T08:08:43;18.57;72.39
69546;SHT31;56766;52.260;20.746;2022-10-16T08:11:09;18.83;72.20
69546;SHT31;56766;52.260;20.746;2022-10-16T08:13:37;19.06;72.00
69546;SHT31;56766;52.260;20.746;2022-10-16T08:16:05;19.25;71.38
69546;SHT31;56766;52.260;20.746;2022-10-16T08:18:35;19.42;71.08
69546;SHT31;56766;52.260;20.746;2022-10-16T08:21:04;19.57;70.81
69546;SHT31;56766;52.260;20.746;2022-10-16T08:23:33;19.69;70.52
69546;SHT31;56766;52.260;20.746;2022-10-16T08:26:06;19.82;70.15
69546;SHT31;56766;52.260;20.746;2022-10-16T08:28:35;20.00;69.96
69546;SHT31;56766;52.260;20.746;2022-10-16T08:31:13;20.12;69.61
69546;SHT31;56766;52.260;20.746;2022-10-16T08:33:44;20.21;69.31
69546;SHT31;56766;52.260;20.746;2022-10-16T08:36:14;20.28;69.17
69546;SHT31;56766;52.260;20.746;2022-10-16T08:38:42;20.35;69.08
69546;SHT31;56766;52.260;20.746;2022-10-16T08:45:02;20.37;68.47
69546;SHT31;56766;52.260;20.746;2022-10-16T08:50:31;20.39;67.97
69546;SHT31;56766;52.260;20.746;2022-10-16T08:53:04;20.45;67.59
69546;SHT31;56766;52.260;20.746;2022-10-16T08:58:18;20.35;67.23
69546;SHT31;56766;52.260;20.746;2022-10-16T09:00:54;20.34;67.32
69546;SHT31;56766;52.260;20.746;2022-10-16T09:04:00;20.37;67.31
69546;SHT31;56766;52.260;20.746;2022-10-16T09:12:21;21.28;66.67
69546;SHT31;56766;52.260;20.746;2022-10-16T09:15:17;21.68;65.87
69546;SHT31;56766;52.260;20.746;2022-10-16T09:20:51;21.83;64.64
69546;SHT31;56766;52.260;20.746;2022-10-16T09:23:28;21.87;64.07
69546;SHT31;56766;52.260;20.746;2022-10-16T09:25:58;21.83;64.04
69546;SHT31;56766;52.260;20.746;2022-10-16T09:28:26;21.87;64.14
69546;SHT31;56766;52.260;20.746;2022-10-16T09:30:52;21.89;63.59
69546;SHT31;56766;52.260;20.746;2022-10-16T09:33:25;21.82;63.42
69546;SHT31;56766;52.260;20.746;2022-10-16T09:36:03;21.81;63.80
69546;SHT31;56766;52.260;20.746;2022-10-16T09:38:35;21.84;63.68
69546;SHT31;56766;52.260;20.746;2022-10-16T09:43:53;22.05;63.54
69546;SHT31;56766;52.260;20.746;2022-10-16T09:49:02;22.27;62.67
69546;SHT31;56766;52.260;20.746;2022-10-16T09:51:51;22.36;62.74
69546;SHT31;56766;52.260;20.746;2022-10-16T09:54:29;22.51;62.48
69546;SHT31;56766;52.260;20.746;2022-10-16T09:57:07;22.66;62.39
69546;SHT31;56766;52.260;20.746;2022-10-16T09:59:56;22.88;61.88
69546;SHT31;56766;52.260;20.746;2022-10-16T10:02:31;23.01;61.48
69546;SHT31;56766;52.260;20.746;2022-10-16T10:05:02;23.03;61.20
69546;SHT31;56766;52.260;20.746;2022-10-16T10:07:37;23.00;60.72
69546;SHT31;56766;52.260;20.746;2022-10-16T10:10:42;22.95;60.57
69546;SHT31;56766;52.260;20.746;2022-10-16T10:13:24;22.87;60.37
69546;SHT31;56766;52.260;20.746;2022-10-16T10:15:53;22.80;60.78
69546;SHT31;56766;52.260;20.746;2022-10-16T10:18:22;22.77;60.79
69546;SHT31;56766;52.260;20.746;2022-10-16T10:21:01;22.71;60.93
69546;SHT31;56766;52.260;20.746;2022-10-16T10:23:29;22.65;60.88
69546;SHT31;56766;52.260;20.746;2022-10-16T10:26:20;22.59;60.90
69546;SHT31;56766;52.260;20.746;2022-10-16T10:28:55;22.57;60.95
69546;SHT31;56766;52.260;20.746;2022-10-16T10:35:22;22.48;60.73
69546;SHT31;56766;52.260;20.746;2022-10-16T10:46:57;22.48;60.80
69546;SHT31;56766;52.260;20.746;2022-10-16T10:56:08;22.88;60.29
69546;SHT31;56766;52.260;20.746;2022-10-16T10:59:16;23.05;60.19
69546;SHT31;56766;52.260;20.746;2022-10-16T11:01:59;23.19;59.64
69546;SHT31;56766;52.260;20.746;2022-10-16T11:04:54;23.19;59.19
69546;SHT31;56766;52.260;20.746;2022-10-16T11:07:30;23.21;59.32
69546;SHT31;56766;52.260;20.746;2022-10-16T11:10:14;23.18;59.12
69546;SHT31;56766;52.260;20.746;2022-10-16T11:12:58;23.07;59.01
69546;SHT31;56766;52.260;20.746;2022-10-16T11:15:50;22.91;59.13
69546;SHT31;56766;52.260;20.746;2022-10-16T11:18:32;22.81;59.27
69546;SHT31;56766;52.260;20.746;2022-10-16T11:21:14;22.73;59.78
69546;SHT31;56766;52.260;20.746;2022-10-16T11:24:01;22.73;60.15
69546;SHT31;56766;52.260;20.746;2022-10-16T11:26:42;22.69;60.01
69546;SHT31;56766;52.260;20.746;2022-10-16T11:29:18;22.62;60.09
69546;SHT31;56766;52.260;20.746;2022-10-16T11:31:55;22.60;60.14
69546;SHT31;56766;52.260;20.746;2022-10-16T11:34:37;22.53;60.40
69546;SHT31;56766;52.260;20.746;2022-10-16T11:37:17;22.51;60.35
69546;SHT31;56766;52.260;20.746;2022-10-16T11:39:58;22.47;60.29
69546;SHT31;56766;52.260;20.746;2022-10-16T11:42:43;22.41;60.24
69546;SHT31;56766;52.260;20.746;2022-10-16T11:45:27;22.35;60.57
69546;SHT31;56766;52.260;20.746;2022-10-16T11:48:08;22.29;60.58
69546;SHT31;56766;52.260;20.746;2022-10-16T11:50:50;22.24;60.64
69546;SHT31;56766;52.260;20.746;2022-10-16T11:56:20;22.26;60.69
69546;SHT31;56766;52.260;20.746;2022-10-16T11:59:07;22.28;60.75
69546;SHT31;56766;52.260;20.746;2022-10-16T12:01:51;22.26;60.82
69546;SHT31;56766;52.260;20.746;2022-10-16T12:04:36;22.31;60.88
69546;SHT31;56766;52.260;20.746;2022-10-16T12:07:17;22.34;60.63
69546;SHT31;56766;52.260;20.746;2022-10-16T12:09:48;22.36;60.53
69546;SHT31;56766;52.260;20.746;2022-10-16T12:12:47;22.37;60.20
69546;SHT31;56766;52.260;20.746;2022-10-16T12:15:19;22.38;60.48
69546;SHT31;56766;52.260;20.746;2022-10-16T12:17:49;22.38;60.29
69546;SHT31;56766;52.260;20.746;2022-10-16T12:22:50;22.25;60.24
69546;SHT31;56766;52.260;20.746;2022-10-16T12:25:36;22.16;60.43
69546;SHT31;56766;52.260;20.746;2022-10-16T12:30:43;22.21;60.44
69546;SHT31;56766;52.260;20.746;2022-10-16T12:33:26;22.33;60.52
69546;SHT31;56766;52.260;20.746;2022-10-16T12:35:58;22.43;60.43
69546;SHT31;56766;52.260;20.746;2022-10-16T12:38:47;22.42;60.08
69546;SHT31;56766;52.260;20.746;2022-10-16T12:41:26;22.31;60.00
69546;SHT31;56766;52.260;20.746;2022-10-16T12:43:53;22.20;60.26
69546;SHT31;56766;52.260;20.746;2022-10-16T12:51:55;21.91;60.94
69546;SHT31;56766;52.260;20.746;2022-10-16T12:54:29;21.85;61.10
69546;SHT31;56766;52.260;20.746;2022-10-16T12:57:25;21.81;61.32
69546;SHT31;56766;52.260;20.746;2022-10-16T13:09:27;21.40;62.12
69546;SHT31;56766;52.260;20.746;2022-10-16T13:15:19;21.08;62.61
69546;SHT31;56766;52.260;20.746;2022-10-16T13:18:21;20.89;63.00
69546;SHT31;56766;52.260;20.746;2022-10-16T13:21:18;20.74;63.26
69546;SHT31;56766;52.260;20.746;2022-10-16T13:30:21;20.41;64.47
69546;SHT31;56766;52.260;20.746;2022-10-16T13:33:00;20.34;64.72
69546;SHT31;56766;52.260;20.746;2022-10-16T13:35:32;20.29;64.88
69546;SHT31;56766;52.260;20.746;2022-10-16T13:38:22;20.25;65.04
69546;SHT31;56766;52.260;20.746;2022-10-16T13:41:02;20.22;65.24
69546;SHT31;56766;52.260;20.746;2022-10-16T13:46:23;20.21;65.54
69546;SHT31;56766;52.260;20.746;2022-10-16T13:48:59;20.21;65.76
69546;SHT31;56766;52.260;20.746;2022-10-16T13:51:28;20.20;66.02
69546;SHT31;56766;52.260;20.746;2022-10-16T13:53:57;20.22;66.13
69546;SHT31;56766;52.260;20.746;2022-10-16T13:56:27;20.23;66.15
69546;SHT31;56766;52.260;20.746;2022-10-16T13:59:05;20.25;66.23
69546;SHT31;56766;52.260;20.746;2022-10-16T14:01:43;20.30;66.32
69546;SHT31;56766;52.260;20.746;2022-10-16T14:04:13;20.34;66.44
69546;SHT31;56766;52.260;20.746;2022-10-16T14:06:43;20.38;66.49
69546;SHT31;56766;52.260;20.746;2022-10-16T14:09:27;20.38;66.59
69546;SHT31;56766;52.260;20.746;2022-10-16T14:12:10;20.39;66.66
69546;SHT31;56766;52.260;20.746;2022-10-16T14:14:47;20.40;66.69
69546;SHT31;56766;52.260;20.746;2022-10-16T14:17:24;20.42;66.81
69546;SHT31;56766;52.260;20.746;2022-10-16T14:19:56;20.41;66.76
69546;SHT31;56766;52.260;20.746;2022-10-16T14:22:32;20.42;66.88
69546;SHT31;56766;52.260;20.746;2022-10-16T14:25:25;20.39;66.80
69546;SHT31;56766;52.260;20.746;2022-10-16T14:30:34;20.30;66.83
69546;SHT31;56766;52.260;20.746;2022-10-16T14:33:05;20.30;66.90
69546;SHT31;56766;52.260;20.746;2022-10-16T14:35:45;20.32;66.96
69546;SHT31;56766;52.260;20.746;2022-10-16T14:38:20;20.35;67.00
69546;SHT31;56766;52.260;20.746;2022-10-16T14:40:49;20.37;67.01
69546;SHT31;56766;52.260;20.746;2022-10-16T14:43:39;20.40;67.05
69546;SHT31;56766;52.260;20.746;2022-10-16T14:46:17;20.39;67.13
69546;SHT31;56766;52.260;20.746;2022-10-16T14:48:49;20.37;67.20
69546;SHT31;56766;52.260;20.746;2022-10-16T14:51:19;20.32;67.18
69546;SHT31;56766;52.260;20.746;2022-10-16T14:53:46;20.25;67.25
69546;SHT31;56766;52.260;20.746;2022-10-16T14:56:19;20.18;67.31
69546;SHT31;56766;52.260;20.746;2022-10-16T14:58:51;20.08;67.39
69546;SHT31;56766;52.260;20.746;2022-10-16T15:01:19;20.02;67.56
69546;SHT31;56766;52.260;20.746;2022-10-16T15:03:46;19.93;67.73
69546;SHT31;56766;52.260;20.746;2022-10-16T15:06:15;19.86;67.91
69546;SHT31;56766;52.260;20.746;2022-10-16T15:08:43;19.81;68.07
69546;SHT31;56766;52.260;20.746;2022-10-16T15:11:16;19.76;68.11
69546;SHT31;56766;52.260;20.746;2022-10-16T15:13:45;19.73;68.23
69546;SHT31;56766;52.260;20.746;2022-10-16T15:16:15;19.67;68.37
69546;SHT31;56766;52.260;20.746;2022-10-16T15:18:42;19.60;68.52
69546;SHT31;56766;52.260;20.746;2022-10-16T15:23:57;19.46;69.12
69546;SHT31;56766;52.260;20.746;2022-10-16T15:26:29;19.40;69.32
69546;SHT31;56766;52.260;20.746;2022-10-16T15:28:56;19.35;69.52
69546;SHT31;56766;52.260;20.746;2022-10-16T15:31:23;19.31;69.56
69546;SHT31;56766;52.260;20.746;2022-10-16T15:33:52;19.27;69.62
69546;SHT31;56766;52.260;20.746;2022-10-16T15:36:33;19.23;69.86
69546;SHT31;56766;52.260;20.746;2022-10-16T15:39:18;19.16;70.05
69546;SHT31;56766;52.260;20.746;2022-10-16T15:41:47;19.09;70.22
69546;SHT31;56766;52.260;20.746;2022-10-16T15:44:20;19.03;70.37
69546;SHT31;56766;52.260;20.746;2022-10-16T15:46:54;18.98;70.45
69546;SHT31;56766;52.260;20.746;2022-10-16T15:49:21;18.93;70.73
69546;SHT31;56766;52.260;20.746;2022-10-16T15:51:51;18.91;70.76
69546;SHT31;56766;52.260;20.746;2022-10-16T15:54:19;18.87;70.97
69546;SHT31;56766;52.260;20.746;2022-10-16T15:56:48;18.79;71.09
69546;SHT31;56766;52.260;20.746;2022-10-16T15:59:15;18.73;71.14
69546;SHT31;56766;52.260;20.746;2022-10-16T16:01:42;18.66;71.34
69546;SHT31;56766;52.260;20.746;2022-10-16T16:04:09;18.57;71.34
69546;SHT31;56766;52.260;20.746;2022-10-16T16:06:35;18.48;71.49
69546;SHT31;56766;52.260;20.746;2022-10-16T16:09:05;18.44;71.60
69546;SHT31;56766;52.260;20.746;2022-10-16T16:11:32;18.39;71.69
69546;SHT31;56766;52.260;20.746;2022-10-16T16:14:04;18.28;71.84
69546;SHT31;56766;52.260;20.746;2022-10-16T16:16:37;18.16;71.86
69546;SHT31;56766;52.260;20.746;2022-10-16T16:19:05;18.06;71.90
69546;SHT31;56766;52.260;20.746;2022-10-16T16:21:33;17.92;72.12
69546;SHT31;56766;52.260;20.746;2022-10-16T16:23:59;17.80;72.52
69546;SHT31;56766;52.260;20.746;2022-10-16T16:26:29;17.73;72.73
69546;SHT31;56766;52.260;20.746;2022-10-16T16:29:03;17.70;72.90
69546;SHT31;56766;52.260;20.746;2022-10-16T16:31:31;17.67;73.00
69546;SHT31;56766;52.260;20.746;2022-10-16T16:33:58;17.62;73.26
69546;SHT31;56766;52.260;20.746;2022-10-16T16:36:25;17.52;73.40
69546;SHT31;56766;52.260;20.746;2022-10-16T16:38:52;17.48;73.48
69546;SHT31;56766;52.260;20.746;2022-10-16T16:41:20;17.43;73.64
69546;SHT31;56766;52.260;20.746;2022-10-16T16:43:53;17.38;73.74
69546;SHT31;56766;52.260;20.746;2022-10-16T16:46:20;17.30;73.80
69546;SHT31;56766;52.260;20.746;2022-10-16T16:48:48;17.24;73.93
69546;SHT31;56766;52.260;20.746;2022-10-16T16:51:19;17.22;73.94
69546;SHT31;56766;52.260;20.746;2022-10-16T16:53:50;17.21;73.99
69546;SHT31;56766;52.260;20.746;2022-10-16T16:56:20;17.18;74.02
69546;SHT31;56766;52.260;20.746;2022-10-16T16:58:50;17.17;74.16
69546;SHT31;56766;52.260;20.746;2022-10-16T17:01:19;17.14;74.21
69546;SHT31;56766;52.260;20.746;2022-10-16T17:03:48;17.09;74.29
69546;SHT31;56766;52.260;20.746;2022-10-16T17:06:19;17.06;74.30
69546;SHT31;56766;52.260;20.746;2022-10-16T17:08:49;17.03;74.26
69546;SHT31;56766;52.260;20.746;2022-10-16T17:11:23;17.00;74.25
69546;SHT31;56766;52.260;20.746;2022-10-16T17:13:52;16.98;74.37
69546;SHT31;56766;52.260;20.746;2022-10-16T17:16:21;16.96;74.50